高雄國際航空站 - 塔台/地面席

METAR RCKH 301600Z 06003KT 9999 FEW013 14/09 Q1019 NOSIG RMK A3009=

站台狀態:Offline
最後更新:2023-01-31 00:30:01